Time;durP1;ratioP1;P1;durP2;ratioP2;P2;SDS_P1;SDS_P2;PMS_P1;PMS_P2;Temp;Humidity;BMP_temperature;BMP_pressure;BME280_temperature;BME280_humidity;BME280_pressure;Samples;Min_cycle;Max_cycle;Signal;HPM_P1;HPM_P2
2023/11/29 00:00:04;;;;;;;21.40;9.38;;;0.40;99.90;;;;;;5033220;28;20037;-59
2023/11/29 00:02:33;;;;;;;23.83;8.98;;;0.40;99.90;;;;;;5032252;28;20036;-58
2023/11/29 00:04:58;;;;;;;24.95;9.57;;;0.40;99.90;;;;;;5034377;28;20026;-60
2023/11/29 00:07:24;;;;;;;18.17;8.85;;;0.50;99.90;;;;;;5034544;28;20027;-61
2023/11/29 00:09:49;;;;;;;18.05;8.85;;;0.50;99.90;;;;;;5035060;28;20079;-60
2023/11/29 00:12:15;;;;;;;21.98;9.75;;;0.50;99.90;;;;;;5033309;28;20091;-60
2023/11/29 00:14:40;;;;;;;19.90;8.85;;;0.60;99.90;;;;;;5033196;28;20029;-59
2023/11/29 00:17:06;;;;;;;17.73;9.20;;;0.60;99.90;;;;;;5034816;28;20079;-61
2023/11/29 00:19:31;;;;;;;20.88;9.32;;;0.50;99.90;;;;;;5034475;28;20400;-60
2023/11/29 00:21:57;;;;;;;26.80;9.75;;;0.60;99.90;;;;;;5030080;28;20030;-61
2023/11/29 00:24:22;;;;;;;15.32;7.68;;;0.60;99.90;;;;;;5033083;28;20029;-61
2023/11/29 00:26:48;;;;;;;19.17;8.65;;;0.60;99.90;;;;;;5031523;28;20030;-60
2023/11/29 00:29:13;;;;;;;19.85;8.82;;;0.50;99.90;;;;;;5028866;28;20030;-60
2023/11/29 00:31:40;;;;;;;17.58;8.48;;;0.60;99.90;;;;;;5032586;28;20021;-60
2023/11/29 00:34:05;;;;;;;22.70;9.35;;;0.60;99.90;;;;;;5032631;28;20030;-59
2023/11/29 00:36:31;;;;;;;20.00;8.45;;;0.60;99.90;;;;;;5030973;28;20044;-59
2023/11/29 00:38:56;;;;;;;16.13;8.15;;;0.60;99.90;;;;;;5034782;28;20029;-58
2023/11/29 00:41:22;;;;;;;21.13;8.80;;;0.50;99.90;;;;;;5030382;28;20040;-60
2023/11/29 00:43:49;;;;;;;19.00;8.95;;;0.50;99.90;;;;;;5028892;28;20024;-60
2023/11/29 00:46:14;;;;;;;16.13;8.23;;;0.50;99.90;;;;;;5032706;28;20025;-61
2023/11/29 00:48:40;;;;;;;17.77;8.77;;;0.50;99.90;;;;;;5034293;28;20048;-60
2023/11/29 00:51:05;;;;;;;20.60;9.50;;;0.50;99.90;;;;;;5032963;28;20033;-61
2023/11/29 00:53:31;;;;;;;18.38;8.45;;;0.50;99.90;;;;;;5033038;28;20052;-60
2023/11/29 00:55:56;;;;;;;15.40;8.23;;;0.60;99.90;;;;;;5029419;28;20028;-61
2023/11/29 00:58:22;;;;;;;20.90;8.80;;;0.60;99.90;;;;;;5032034;28;20033;-61
2023/11/29 01:00:48;;;;;;;15.85;8.00;;;0.60;99.90;;;;;;5029037;28;20062;-61
2023/11/29 01:03:13;;;;;;;17.33;8.77;;;0.60;99.90;;;;;;5031599;28;20027;-61
2023/11/29 01:05:39;;;;;;;20.58;9.02;;;0.60;99.90;;;;;;5029536;28;20033;-59
2023/11/29 01:08:04;;;;;;;16.35;8.30;;;0.70;99.90;;;;;;5032929;28;20075;-61
2023/11/29 01:10:30;;;;;;;17.33;8.27;;;0.70;99.90;;;;;;5031244;28;20120;-61
2023/11/29 01:12:56;;;;;;;20.55;8.38;;;0.70;99.90;;;;;;5029909;28;20447;-61
2023/11/29 01:15:21;;;;;;;15.60;8.07;;;0.80;99.90;;;;;;5030658;28;20515;-59
2023/11/29 01:17:47;;;;;;;14.55;7.63;;;0.80;99.90;;;;;;5031114;28;20526;-61
2023/11/29 01:20:12;;;;;;;16.52;8.43;;;0.90;99.90;;;;;;5030254;28;20043;-61
2023/11/29 01:22:38;;;;;;;17.13;8.68;;;0.90;99.90;;;;;;5030794;28;20021;-61
2023/11/29 01:25:04;;;;;;;19.10;8.50;;;0.90;99.90;;;;;;5030200;28;20068;-61
2023/11/29 01:27:30;;;;;;;13.85;7.15;;;1.00;99.90;;;;;;5030142;28;20286;-59
2023/11/29 01:29:57;;;;;;;17.85;8.75;;;1.00;99.90;;;;;;5029820;28;20025;-60
2023/11/29 01:32:23;;;;;;;20.08;7.72;;;1.00;99.90;;;;;;5030773;28;20026;-60
2023/11/29 01:34:49;;;;;;;15.02;7.43;;;1.00;99.90;;;;;;5028630;28;20442;-60
2023/11/29 01:37:14;;;;;;;20.83;7.93;;;1.10;99.90;;;;;;5030789;28;20565;-60
2023/11/29 01:39:44;;;;;;;19.63;7.72;;;1.10;99.90;;;;;;5030725;28;20090;-58
2023/11/29 01:42:10;;;;;;;16.77;8.73;;;1.20;99.90;;;;;;5029679;28;20024;-61
2023/11/29 01:44:35;;;;;;;19.27;7.95;;;1.20;99.90;;;;;;5021780;28;20108;-60
2023/11/29 01:47:12;;;;;;;13.20;7.40;;;1.30;99.90;;;;;;5028839;28;20152;-58
2023/11/29 01:49:39;;;;;;;14.32;7.43;;;1.30;99.90;;;;;;5023835;28;20109;-58
2023/11/29 01:52:05;;;;;;;13.70;7.40;;;1.30;99.90;;;;;;5021380;28;20090;-59
2023/11/29 01:54:31;;;;;;;15.45;7.78;;;1.30;99.90;;;;;;5028820;28;20803;-60
2023/11/29 01:56:57;;;;;;;17.77;6.70;;;1.20;99.90;;;;;;5028626;28;20029;-61
2023/11/29 01:59:22;;;;;;;17.45;7.65;;;1.20;99.90;;;;;;5025809;28;20036;-60
2023/11/29 02:01:48;;;;;;;16.25;7.53;;;1.20;99.90;;;;;;5024608;28;20029;-58
2023/11/29 02:04:14;;;;;;;17.95;9.07;;;1.20;99.90;;;;;;5027280;28;20025;-60
2023/11/29 02:06:41;;;;;;;19.02;8.90;;;1.10;99.90;;;;;;5029221;28;20068;-59
2023/11/29 02:09:07;;;;;;;17.50;7.75;;;1.10;99.90;;;;;;5028561;28;20395;-58
2023/11/29 02:11:39;;;;;;;20.98;8.98;;;1.10;99.90;;;;;;5027670;28;20033;-60
2023/11/29 02:14:05;;;;;;;18.38;8.50;;;1.10;99.90;;;;;;5030176;28;20112;-59
2023/11/29 02:16:31;;;;;;;16.55;8.35;;;1.10;99.90;;;;;;5029720;28;20426;-60
2023/11/29 02:18:56;;;;;;;22.33;7.75;;;1.10;99.90;;;;;;5026242;28;20128;-57
2023/11/29 02:21:24;;;;;;;18.83;7.93;;;1.10;99.90;;;;;;5030332;28;20091;-56
2023/11/29 02:24:00;;;;;;;15.20;7.53;;;1.20;99.90;;;;;;5027089;28;20026;-58
2023/11/29 02:26:27;;;;;;;21.92;7.35;;;1.20;99.90;;;;;;5029572;28;20116;-60
2023/11/29 02:28:52;;;;;;;20.05;8.10;;;1.20;99.90;;;;;;5028676;28;20033;-60
2023/11/29 02:31:18;;;;;;;16.95;8.20;;;1.20;99.90;;;;;;5029370;28;20041;-60
2023/11/29 02:33:43;;;;;;;18.48;7.53;;;1.30;99.90;;;;;;5029313;28;20123;-60
2023/11/29 02:36:09;;;;;;;16.52;7.93;;;1.30;99.90;;;;;;5027716;28;20029;-60
2023/11/29 02:38:34;;;;;;;15.18;7.40;;;1.30;99.90;;;;;;5028405;28;20451;-60
2023/11/29 02:41:00;;;;;;;17.40;7.80;;;1.30;99.90;;;;;;5026782;28;20438;-60
2023/11/29 02:43:26;;;;;;;15.93;7.85;;;1.40;99.90;;;;;;5029924;28;20026;-59
2023/11/29 02:45:51;;;;;;;17.13;7.97;;;1.30;99.90;;;;;;5026755;28;20028;-58
2023/11/29 02:48:17;;;;;;;17.73;8.07;;;1.30;99.90;;;;;;5029489;28;20041;-59
2023/11/29 02:50:43;;;;;;;15.15;7.32;;;1.30;99.90;;;;;;5028223;28;20037;-58
2023/11/29 02:53:09;;;;;;;22.55;8.82;;;1.40;99.90;;;;;;5024491;28;20518;-61
2023/11/29 02:55:34;;;;;;;16.90;8.65;;;1.50;99.90;;;;;;5027151;28;20030;-60
2023/11/29 02:58:01;;;;;;;19.23;9.25;;;1.60;99.90;;;;;;5029412;28;20036;-60
2023/11/29 03:00:26;;;;;;;21.15;8.68;;;1.60;99.90;;;;;;5026968;28;20028;-56
2023/11/29 03:02:52;;;;;;;18.02;8.80;;;1.50;99.90;;;;;;5026261;28;20448;-59
2023/11/29 03:05:18;;;;;;;25.40;9.70;;;1.60;99.90;;;;;;5022904;28;20496;-59
2023/11/29 03:07:44;;;;;;;19.10;8.35;;;1.50;99.90;;;;;;5027347;28;20426;-60
2023/11/29 03:10:09;;;;;;;17.08;9.30;;;1.40;99.90;;;;;;5027227;28;20053;-60
2023/11/29 03:12:35;;;;;;;16.05;7.75;;;1.40;99.90;;;;;;5029796;28;20044;-61
2023/11/29 03:15:00;;;;;;;20.00;9.20;;;1.40;99.90;;;;;;5028203;28;20108;-60
2023/11/29 03:17:26;;;;;;;20.90;10.10;;;1.40;99.90;;;;;;5028174;28;20195;-58
2023/11/29 03:19:51;;;;;;;18.77;10.05;;;1.50;99.90;;;;;;5026796;28;20104;-60
2023/11/29 03:22:17;;;;;;;24.17;9.60;;;1.50;99.90;;;;;;5029183;28;20499;-56
2023/11/29 03:24:46;;;;;;;25.73;9.80;;;1.60;99.90;;;;;;5029390;28;20034;-57
2023/11/29 03:27:11;;;;;;;25.05;11.30;;;1.50;99.90;;;;;;5028807;28;20022;-60
2023/11/29 03:29:37;;;;;;;29.35;12.35;;;1.50;99.90;;;;;;5024473;28;20048;-59
2023/11/29 03:32:02;;;;;;;22.95;11.20;;;1.50;99.90;;;;;;5029195;28;20049;-58
2023/11/29 03:34:28;;;;;;;28.02;12.15;;;1.50;99.90;;;;;;5027998;28;20433;-61
2023/11/29 03:36:53;;;;;;;30.70;13.32;;;1.50;99.90;;;;;;5028286;28;20056;-60
2023/11/29 03:39:19;;;;;;;26.52;11.70;;;1.60;99.90;;;;;;5027144;28;20109;-61
2023/11/29 03:41:45;;;;;;;26.65;11.07;;;1.60;99.90;;;;;;5028843;28;20049;-58
2023/11/29 03:44:10;;;;;;;24.80;12.27;;;1.70;99.90;;;;;;5026153;28;20038;-61
2023/11/29 03:46:36;;;;;;;23.63;10.50;;;1.80;99.90;;;;;;5028426;28;20109;-60
2023/11/29 03:49:01;;;;;;;25.58;11.43;;;1.80;99.90;;;;;;5029078;28;20033;-60
2023/11/29 03:51:27;;;;;;;27.88;12.77;;;1.80;99.90;;;;;;5023949;28;20025;-61
2023/11/29 03:53:52;;;;;;;26.13;11.70;;;1.80;99.90;;;;;;5028747;28;20040;-61
2023/11/29 03:56:18;;;;;;;28.02;11.82;;;1.80;99.90;;;;;;5029433;28;20032;-60
2023/11/29 03:58:43;;;;;;;24.98;11.25;;;1.80;99.90;;;;;;5029089;28;20041;-59
2023/11/29 04:01:09;;;;;;;26.92;11.25;;;1.80;99.90;;;;;;5026572;28;20033;-57
2023/11/29 04:03:34;;;;;;;23.85;11.40;;;1.80;99.90;;;;;;5028620;28;20116;-61
2023/11/29 04:06:00;;;;;;;20.83;10.35;;;1.90;99.90;;;;;;5028515;28;20021;-59
2023/11/29 04:08:26;;;;;;;26.80;10.63;;;1.80;99.90;;;;;;5027714;28;20508;-61
2023/11/29 04:10:51;;;;;;;26.33;10.90;;;1.90;99.90;;;;;;5029459;28;20026;-60
2023/11/29 04:13:17;;;;;;;20.35;9.75;;;1.80;99.90;;;;;;5028507;28;20026;-61
2023/11/29 04:15:42;;;;;;;23.75;11.02;;;1.90;99.90;;;;;;5027419;28;20050;-60
2023/11/29 04:18:08;;;;;;;23.17;10.88;;;1.80;99.90;;;;;;5026710;28;20022;-60
2023/11/29 04:20:33;;;;;;;26.58;10.65;;;1.90;99.90;;;;;;5027905;28;20021;-60
2023/11/29 04:22:59;;;;;;;24.35;10.18;;;1.90;99.90;;;;;;5019668;28;20030;-61
2023/11/29 04:25:24;;;;;;;26.48;10.68;;;1.90;99.90;;;;;;5026410;28;20115;-59
2023/11/29 04:27:50;;;;;;;24.20;11.07;;;1.80;99.90;;;;;;5025995;28;20049;-61
2023/11/29 04:30:15;;;;;;;27.05;11.85;;;1.80;99.90;;;;;;5029529;28;20048;-59
2023/11/29 04:32:41;;;;;;;21.98;10.73;;;1.80;99.90;;;;;;5026147;28;20045;-61
2023/11/29 04:35:07;;;;;;;23.20;11.32;;;1.80;99.90;;;;;;5028247;28;20396;-61
2023/11/29 04:37:33;;;;;;;25.67;10.98;;;1.80;99.90;;;;;;5027493;28;20036;-57
2023/11/29 04:39:58;;;;;;;23.52;10.93;;;1.90;99.90;;;;;;5028675;28;20112;-60
2023/11/29 04:42:24;;;;;;;24.42;11.70;;;1.90;99.90;;;;;;5031655;28;20104;-59
2023/11/29 04:44:51;;;;;;;20.48;10.00;;;2.00;99.90;;;;;;5030012;28;20049;-61
2023/11/29 04:47:18;;;;;;;29.60;10.60;;;2.00;99.90;;;;;;5027036;28;20032;-59
2023/11/29 04:49:43;;;;;;;27.88;11.90;;;1.90;99.90;;;;;;5024976;28;21488;-61
2023/11/29 04:52:09;;;;;;;22.70;10.10;;;2.00;99.90;;;;;;5028366;28;20100;-60
2023/11/29 04:54:34;;;;;;;20.77;9.63;;;2.00;99.90;;;;;;5025411;28;20044;-59
2023/11/29 04:57:00;;;;;;;30.23;11.15;;;2.00;99.90;;;;;;5027980;28;20426;-60
2023/11/29 04:59:26;;;;;;;22.13;9.50;;;2.00;99.90;;;;;;5031027;28;20064;-61
2023/11/29 05:01:51;;;;;;;20.90;9.82;;;2.00;99.90;;;;;;5027845;28;20031;-60
2023/11/29 05:04:18;;;;;;;21.83;11.20;;;2.00;99.90;;;;;;5030918;28;20036;-60
2023/11/29 05:06:43;;;;;;;21.70;10.60;;;2.00;99.90;;;;;;5026080;28;20021;-58
2023/11/29 05:09:14;;;;;;;17.98;9.25;;;2.10;99.90;;;;;;5026653;28;20025;-59
2023/11/29 05:11:40;;;;;;;23.70;10.20;;;2.20;99.90;;;;;;5029901;28;20124;-56
2023/11/29 05:14:05;;;;;;;23.98;9.90;;;2.10;99.90;;;;;;5027752;28;20110;-60
2023/11/29 05:16:31;;;;;;;21.25;10.43;;;2.00;99.90;;;;;;5026026;28;20496;-61
2023/11/29 05:18:57;;;;;;;20.77;9.77;;;2.00;99.90;;;;;;5031465;28;20079;-61
2023/11/29 05:21:22;;;;;;;26.58;10.02;;;1.90;99.90;;;;;;5028990;28;20396;-58
2023/11/29 05:23:48;;;;;;;22.23;10.20;;;2.00;99.90;;;;;;5027918;28;20041;-60
2023/11/29 05:26:14;;;;;;;26.88;10.73;;;2.10;99.90;;;;;;5028144;28;20336;-59
2023/11/29 05:28:39;;;;;;;25.83;10.40;;;2.00;99.90;;;;;;5029963;28;20510;-58
2023/11/29 05:31:05;;;;;;;28.02;11.18;;;2.10;99.90;;;;;;5029336;28;20095;-61
2023/11/29 05:33:31;;;;;;;20.80;9.13;;;2.10;99.90;;;;;;5030211;28;20438;-58
2023/11/29 05:35:56;;;;;;;28.20;9.70;;;2.00;99.90;;;;;;5029592;28;20579;-61
2023/11/29 05:38:23;;;;;;;25.73;9.55;;;2.00;99.90;;;;;;5029873;28;20518;-61
2023/11/29 05:40:49;;;;;;;25.92;10.95;;;2.10;99.90;;;;;;5024007;28;20029;-60
2023/11/29 05:43:15;;;;;;;27.85;12.00;;;2.10;99.90;;;;;;5026559;28;20048;-61
2023/11/29 05:45:40;;;;;;;25.98;10.30;;;2.10;99.90;;;;;;5026766;28;20919;-61
2023/11/29 05:48:06;;;;;;;25.15;11.25;;;2.10;99.90;;;;;;5024361;28;20107;-60
2023/11/29 05:50:31;;;;;;;25.23;11.85;;;2.10;99.90;;;;;;5025433;28;20033;-60
2023/11/29 05:52:58;;;;;;;27.58;10.75;;;2.00;99.90;;;;;;5021212;28;20025;-61
2023/11/29 05:55:24;;;;;;;26.02;11.80;;;2.00;99.90;;;;;;5024342;28;20032;-60
2023/11/29 05:57:49;;;;;;;30.40;11.23;;;2.00;99.90;;;;;;5023039;28;20037;-60
2023/11/29 06:00:18;;;;;;;26.58;11.18;;;1.90;99.90;;;;;;5028277;28;20030;-60
2023/11/29 06:02:44;;;;;;;27.98;11.70;;;1.80;99.90;;;;;;5024723;28;20041;-60
2023/11/29 06:05:09;;;;;;;32.35;11.73;;;1.80;99.90;;;;;;5027577;28;20033;-59
2023/11/29 06:07:36;;;;;;;37.13;11.98;;;1.70;99.90;;;;;;5025093;28;20408;-61
2023/11/29 06:10:03;;;;;;;34.20;14.07;;;1.70;99.90;;;;;;5023973;28;20160;-60
2023/11/29 06:12:29;;;;;;;36.67;14.30;;;1.70;99.90;;;;;;5022705;28;20391;-58
2023/11/29 06:14:55;;;;;;;34.17;14.00;;;1.80;99.90;;;;;;5029570;28;20175;-59
2023/11/29 06:17:21;;;;;;;29.83;12.20;;;1.90;99.90;;;;;;5026658;28;20112;-60
2023/11/29 06:19:47;;;;;;;37.25;12.55;;;2.10;99.90;;;;;;5027509;28;20491;-60
2023/11/29 06:22:13;;;;;;;25.13;10.68;;;2.20;99.90;;;;;;5028111;28;20026;-58
2023/11/29 06:24:39;;;;;;;20.83;10.45;;;2.40;99.90;;;;;;5029448;28;20044;-61
2023/11/29 06:27:04;;;;;;;24.10;8.65;;;2.50;99.90;;;;;;5028605;28;20026;-60
2023/11/29 06:29:31;;;;;;;25.27;9.32;;;2.50;99.90;;;;;;5029319;28;20033;-58
2023/11/29 06:31:57;;;;;;;20.30;9.48;;;2.50;99.90;;;;;;5025903;28;20034;-60
2023/11/29 06:34:23;;;;;;;19.77;9.00;;;2.50;99.90;;;;;;5027368;28;20562;-60
2023/11/29 06:36:49;;;;;;;29.00;9.02;;;2.60;99.90;;;;;;5025083;28;20147;-59
2023/11/29 06:39:17;;;;;;;28.55;9.48;;;2.60;99.90;;;;;;5025834;28;20049;-60
2023/11/29 06:41:44;;;;;;;21.92;8.30;;;2.70;99.90;;;;;;5025153;28;20044;-59
2023/11/29 06:44:10;;;;;;;22.58;7.95;;;2.80;99.90;;;;;;5024490;28;20032;-54
2023/11/29 06:46:35;;;;;;;21.10;7.93;;;2.80;99.90;;;;;;5023465;28;20026;-52
2023/11/29 06:49:01;;;;;;;23.20;8.98;;;2.90;99.90;;;;;;5024759;28;20648;-52
2023/11/29 06:51:28;;;;;;;19.38;7.53;;;2.90;99.90;;;;;;5025969;28;20035;-53
2023/11/29 06:53:53;;;;;;;14.95;7.70;;;2.90;99.90;;;;;;5030856;28;20130;-51
2023/11/29 06:56:19;;;;;;;16.17;6.78;;;3.00;99.90;;;;;;5025567;28;20496;-54
2023/11/29 06:58:44;;;;;;;20.15;7.93;;;3.00;99.90;;;;;;5030736;28;20638;-56
2023/11/29 07:01:10;;;;;;;12.95;5.90;;;3.00;99.90;;;;;;5029727;28;20022;-55
2023/11/29 07:03:36;;;;;;;18.70;7.38;;;3.00;99.90;;;;;;5027114;28;20079;-54
2023/11/29 07:06:01;;;;;;;14.10;6.65;;;2.90;99.90;;;;;;5022000;28;20033;-54
2023/11/29 07:08:27;;;;;;;14.38;7.15;;;2.90;99.90;;;;;;5024575;28;20040;-55
2023/11/29 07:10:52;;;;;;;17.20;7.88;;;2.90;99.90;;;;;;5026846;28;20079;-55
2023/11/29 07:13:18;;;;;;;16.63;6.38;;;2.80;99.90;;;;;;5028298;28;20017;-55
2023/11/29 07:15:43;;;;;;;20.45;7.65;;;2.80;99.90;;;;;;5029965;28;20074;-55
2023/11/29 07:18:09;;;;;;;14.57;6.88;;;3.00;99.90;;;;;;5026801;28;20033;-54
2023/11/29 07:20:34;;;;;;;17.38;7.47;;;3.00;99.90;;;;;;5025762;28;20040;-53
2023/11/29 07:23:00;;;;;;;21.65;8.35;;;3.00;99.90;;;;;;5027612;28;20028;-55
2023/11/29 07:25:25;;;;;;;19.75;8.50;;;2.90;99.90;;;;;;5024637;28;20030;-53
2023/11/29 07:27:51;;;;;;;15.98;7.72;;;3.00;99.90;;;;;;5029894;28;20029;-54
2023/11/29 07:30:17;;;;;;;24.40;9.07;;;2.80;99.90;;;;;;5023786;28;20547;-52
2023/11/29 07:32:43;;;;;;;19.35;8.02;;;2.80;99.90;;;;;;5022783;28;20033;-53
2023/11/29 07:35:08;;;;;;;24.17;10.38;;;2.80;99.90;;;;;;5020979;28;20041;-53
2023/11/29 07:37:34;;;;;;;21.40;8.93;;;2.70;99.90;;;;;;5017965;28;20052;-52
2023/11/29 07:39:59;;;;;;;29.40;9.77;;;2.80;99.90;;;;;;5030393;28;20026;-53
2023/11/29 07:42:25;;;;;;;19.63;9.15;;;2.80;99.90;;;;;;5020063;28;20654;-53
2023/11/29 07:44:50;;;;;;;25.67;9.68;;;2.80;99.90;;;;;;5018995;28;20052;-55
2023/11/29 07:47:16;;;;;;;18.38;8.23;;;2.80;99.90;;;;;;5018913;28;20026;-54
2023/11/29 07:49:41;;;;;;;23.95;9.88;;;2.80;99.90;;;;;;5018365;28;20030;-53
2023/11/29 07:52:07;;;;;;;22.58;10.13;;;2.80;99.90;;;;;;5020748;28;20515;-53
2023/11/29 07:54:32;;;;;;;24.65;9.77;;;2.90;99.90;;;;;;5018629;28;20446;-53
2023/11/29 07:56:58;;;;;;;18.13;9.88;;;2.90;99.90;;;;;;5018893;28;20042;-54
2023/11/29 07:59:23;;;;;;;23.35;10.27;;;3.00;99.90;;;;;;5020124;28;20555;-53
2023/11/29 08:01:49;;;;;;;19.52;10.05;;;3.10;99.90;;;;;;5019654;28;20053;-54
2023/11/29 08:04:15;;;;;;;21.08;9.63;;;3.20;99.90;;;;;;5021615;28;20029;-55
2023/11/29 08:06:41;;;;;;;25.40;11.88;;;3.20;99.90;;;;;;5022457;28;20025;-54
2023/11/29 08:09:08;;;;;;;25.13;11.18;;;3.20;99.90;;;;;;5022429;28;20036;-56
2023/11/29 08:11:34;;;;;;;23.67;10.98;;;3.30;99.90;;;;;;5030694;28;20024;-54
2023/11/29 08:14:02;;;;;;;22.73;10.70;;;3.30;99.90;;;;;;5031059;28;20025;-55
2023/11/29 08:16:28;;;;;;;29.05;11.40;;;3.30;99.90;;;;;;5031300;28;20033;-54
2023/11/29 08:18:55;;;;;;;25.17;11.55;;;3.30;99.90;;;;;;5033055;28;20033;-53
2023/11/29 08:21:21;;;;;;;27.65;11.05;;;3.30;99.90;;;;;;5032510;28;20079;-54
2023/11/29 08:23:46;;;;;;;25.40;11.73;;;3.30;99.90;;;;;;5032825;28;20399;-52
2023/11/29 08:26:12;;;;;;;21.58;10.98;;;3.30;99.90;;;;;;5032504;28;20030;-55
2023/11/29 08:28:37;;;;;;;27.67;11.73;;;3.30;99.90;;;;;;5032012;28;20025;-52
2023/11/29 08:31:03;;;;;;;21.27;11.40;;;3.40;99.90;;;;;;5032361;28;20479;-54
2023/11/29 08:33:30;;;;;;;24.73;11.10;;;3.40;99.90;;;;;;5034079;28;20036;-56
2023/11/29 08:35:56;;;;;;;27.67;10.75;;;3.40;99.90;;;;;;5031450;28;20443;-54
2023/11/29 08:38:21;;;;;;;20.33;9.93;;;3.50;99.90;;;;;;5034722;28;20017;-54
2023/11/29 08:40:47;;;;;;;22.95;10.75;;;3.50;99.90;;;;;;5030389;28;20037;-55
2023/11/29 08:43:13;;;;;;;23.40;11.18;;;3.50;99.90;;;;;;5031081;28;20109;-53
2023/11/29 08:45:39;;;;;;;22.92;12.45;;;3.60;99.90;;;;;;5027051;28;20104;-53
2023/11/29 08:48:04;;;;;;;19.15;9.63;;;3.60;99.90;;;;;;5025899;28;20026;-54
2023/11/29 08:50:30;;;;;;;17.13;9.27;;;3.60;99.90;;;;;;5031949;28;20029;-53
2023/11/29 08:52:55;;;;;;;21.95;10.93;;;3.70;99.90;;;;;;5030243;28;20025;-55
2023/11/29 08:55:21;;;;;;;23.90;10.55;;;3.70;99.90;;;;;;5033942;28;20037;-55
2023/11/29 08:57:46;;;;;;;19.80;9.93;;;3.70;99.90;;;;;;5033673;28;20041;-55
2023/11/29 09:00:12;;;;;;;28.95;11.57;;;3.70;99.90;;;;;;5033728;28;20033;-54
2023/11/29 09:02:38;;;;;;;24.17;11.63;;;3.70;99.90;;;;;;5031700;28;20033;-55
2023/11/29 09:05:04;;;;;;;27.95;9.43;;;3.70;99.90;;;;;;5026346;28;20021;-55
2023/11/29 09:07:30;;;;;;;18.35;8.60;;;3.80;99.90;;;;;;5031408;28;20546;-56
2023/11/29 09:09:58;;;;;;;18.90;8.77;;;3.80;99.90;;;;;;5024119;28;20034;-53
2023/11/29 09:12:25;;;;;;;18.60;8.00;;;3.70;99.90;;;;;;5022742;28;21472;-54
2023/11/29 09:14:55;;;;;;;22.73;9.10;;;3.80;99.90;;;;;;5023120;28;20436;-56
2023/11/29 09:17:22;;;;;;;20.90;9.65;;;3.80;99.90;;;;;;5022422;28;20516;-56
2023/11/29 09:19:53;;;;;;;16.63;8.77;;;3.80;99.90;;;;;;5022889;28;20068;-53
2023/11/29 09:22:21;;;;;;;17.73;8.90;;;3.80;99.90;;;;;;5021764;28;20025;-54
2023/11/29 09:24:48;;;;;;;18.15;8.35;;;3.90;99.90;;;;;;5031553;28;20033;-56
2023/11/29 09:27:14;;;;;;;13.23;8.27;;;3.90;99.90;;;;;;5023192;28;20414;-54
2023/11/29 09:29:40;;;;;;;15.52;7.97;;;4.00;99.90;;;;;;5022934;28;20041;-53
2023/11/29 09:32:05;;;;;;;13.43;7.28;;;4.10;99.90;;;;;;5022119;28;20392;-55
2023/11/29 09:34:31;;;;;;;15.98;7.90;;;4.10;99.90;;;;;;5026581;28;20069;-55
2023/11/29 09:37:00;;;;;;;15.65;7.35;;;4.10;99.90;;;;;;5029969;28;20487;-53
2023/11/29 09:39:28;;;;;;;17.05;8.18;;;4.20;99.90;;;;;;5024077;28;20404;-53
2023/11/29 09:41:56;;;;;;;18.67;8.40;;;4.20;99.90;;;;;;5018730;28;20028;-55
2023/11/29 09:44:24;;;;;;;17.38;7.70;;;4.30;99.90;;;;;;5023737;28;20038;-56
2023/11/29 09:46:54;;;;;;;12.05;6.95;;;4.40;99.90;;;;;;5024886;28;20025;-56
2023/11/29 09:49:20;;;;;;;20.52;6.95;;;4.40;99.90;;;;;;5027292;28;20492;-55
2023/11/29 09:51:46;;;;;;;14.82;7.22;;;4.50;99.90;;;;;;5029189;28;20422;-56
2023/11/29 09:54:12;;;;;;;13.55;6.13;;;4.40;99.90;;;;;;5030630;28;20090;-56
2023/11/29 09:56:38;;;;;;;12.65;6.28;;;4.40;99.90;;;;;;5030075;28;20111;-56
2023/11/29 09:59:03;;;;;;;18.88;7.13;;;4.40;99.90;;;;;;5029330;28;20492;-56
2023/11/29 10:01:47;;;;;;;16.38;8.13;;;4.40;99.90;;;;;;5033218;28;20029;-55
2023/11/29 10:04:13;;;;;;;17.90;7.32;;;4.50;99.90;;;;;;5030762;28;20028;-52
2023/11/29 10:06:39;;;;;;;15.57;7.38;;;4.70;99.90;;;;;;5025419;28;20635;-55
2023/11/29 10:09:11;;;;;;;19.67;7.97;;;4.80;99.90;;;;;;5029945;28;20033;-55
2023/11/29 10:11:36;;;;;;;18.00;6.80;;;4.80;99.90;;;;;;5028173;28;20036;-54
2023/11/29 10:14:05;;;;;;;9.52;5.70;;;4.80;99.90;;;;;;5029259;28;20026;-54
2023/11/29 10:16:31;;;;;;;13.63;5.93;;;4.80;99.90;;;;;;5026605;28;20035;-54
2023/11/29 10:18:58;;;;;;;15.30;6.80;;;4.80;99.90;;;;;;5026754;28;20120;-55
2023/11/29 10:21:23;;;;;;;16.40;8.35;;;4.70;99.90;;;;;;5028789;28;20025;-55
2023/11/29 10:23:49;;;;;;;12.27;5.88;;;4.70;99.90;;;;;;5030274;28;20152;-54
2023/11/29 10:26:15;;;;;;;10.55;5.80;;;4.60;99.90;;;;;;5027929;28;20030;-54
2023/11/29 10:28:41;;;;;;;14.02;6.70;;;4.60;99.90;;;;;;5029452;28;20036;-54
2023/11/29 10:31:07;;;;;;;11.85;6.50;;;4.60;99.90;;;;;;5029244;28;20024;-53
2023/11/29 10:33:34;;;;;;;17.23;7.43;;;4.70;99.90;;;;;;5027279;28;20025;-53
2023/11/29 10:36:03;;;;;;;13.25;7.38;;;4.70;99.90;;;;;;5030639;28;20025;-52
2023/11/29 10:38:33;;;;;;;12.65;6.82;;;4.60;99.90;;;;;;5027249;28;20116;-55
2023/11/29 10:41:03;;;;;;;19.92;8.13;;;4.70;99.90;;;;;;5029392;28;20060;-54
2023/11/29 10:43:30;;;;;;;12.32;7.07;;;4.70;99.90;;;;;;5028830;28;20120;-52
2023/11/29 10:46:15;;;;;;;14.23;6.28;;;4.60;99.90;;;;;;5029171;28;20026;-53
2023/11/29 10:48:48;;;;;;;14.50;7.90;;;4.60;99.90;;;;;;5032541;28;20379;-52
2023/11/29 10:51:13;;;;;;;9.82;5.88;;;4.50;99.90;;;;;;5030892;28;20037;-53
2023/11/29 10:53:40;;;;;;;15.25;7.10;;;4.60;99.90;;;;;;5028952;28;20527;-54
2023/11/29 10:56:07;;;;;;;16.83;7.70;;;4.60;99.90;;;;;;5030372;28;20530;-55
2023/11/29 10:58:45;;;;;;;16.70;7.65;;;4.60;99.90;;;;;;5030219;28;20124;-53
2023/11/29 11:01:12;;;;;;;10.57;7.03;;;4.60;99.90;;;;;;5029583;28;20166;-54
2023/11/29 11:03:42;;;;;;;17.25;7.78;;;4.70;99.90;;;;;;5032943;28;20025;-54
2023/11/29 11:06:22;;;;;;;16.70;7.45;;;4.70;99.90;;;;;;5029961;28;20014;-52
2023/11/29 11:08:52;;;;;;;18.45;8.50;;;4.80;99.90;;;;;;5027045;28;20037;-52
2023/11/29 11:11:43;;;;;;;14.32;7.50;;;4.70;99.90;;;;;;5030245;28;20498;-53
2023/11/29 11:14:20;;;;;;;15.02;8.10;;;4.70;99.90;;;;;;5025187;28;20112;-56
2023/11/29 11:17:09;;;;;;;17.08;7.85;;;4.60;99.90;;;;;;5032755;28;20104;-55
2023/11/29 11:19:42;;;;;;;11.70;7.28;;;4.60;99.90;;;;;;5030903;28;20483;-53
2023/11/29 11:22:15;;;;;;;11.82;7.07;;;4.60;99.90;;;;;;5027814;28;20053;-54
2023/11/29 11:24:53;;;;;;;15.63;7.67;;;4.70;99.90;;;;;;5025089;28;20028;-53
2023/11/29 11:27:21;;;;;;;15.70;7.63;;;4.60;99.90;;;;;;5026819;28;20017;-53
2023/11/29 11:29:46;;;;;;;14.80;6.65;;;4.70;99.90;;;;;;5029045;28;20546;-53
2023/11/29 11:32:12;;;;;;;13.85;7.35;;;4.60;99.90;;;;;;5025948;28;20025;-54
2023/11/29 11:34:37;;;;;;;12.90;6.95;;;4.60;99.90;;;;;;5026270;28;20033;-55
2023/11/29 11:37:04;;;;;;;18.00;7.30;;;4.50;99.90;;;;;;5028533;28;20057;-53
2023/11/29 11:39:29;;;;;;;10.75;5.68;;;4.50;99.90;;;;;;5026198;28;20037;-55
2023/11/29 11:41:55;;;;;;;10.93;5.30;;;4.50;99.90;;;;;;5030052;28;20023;-52
2023/11/29 11:44:21;;;;;;;8.85;4.68;;;4.50;99.90;;;;;;5027970;28;20437;-55
2023/11/29 11:46:51;;;;;;;11.98;5.15;;;4.50;99.90;;;;;;5030495;28;20100;-57
2023/11/29 11:49:17;;;;;;;17.77;5.72;;;4.50;99.90;;;;;;5026409;28;20492;-55
2023/11/29 11:51:43;;;;;;;12.63;6.22;;;4.40;99.90;;;;;;5027574;28;20034;-54
2023/11/29 11:54:08;;;;;;;6.40;4.68;;;4.30;99.90;;;;;;5028169;28;20029;-56
2023/11/29 11:56:34;;;;;;;9.05;4.93;;;4.30;99.90;;;;;;5026803;28;20033;-54
2023/11/29 11:59:00;;;;;;;14.57;5.80;;;4.30;99.90;;;;;;5028836;28;20487;-55
2023/11/29 12:01:28;;;;;;;11.65;5.43;;;4.30;99.90;;;;;;5028511;28;20663;-54
2023/11/29 12:03:54;;;;;;;11.10;5.82;;;4.20;99.90;;;;;;5029190;28;20029;-62
2023/11/29 12:06:20;;;;;;;8.48;5.95;;;4.20;99.90;;;;;;5029837;28;20029;-55
2023/11/29 12:08:47;;;;;;;11.45;6.55;;;4.20;99.90;;;;;;5027161;28;20422;-56
2023/11/29 12:11:12;;;;;;;14.90;6.60;;;4.20;99.90;;;;;;5025890;28;20029;-53
2023/11/29 12:13:38;;;;;;;14.35;7.07;;;4.30;99.90;;;;;;5026480;28;20372;-57
2023/11/29 12:16:14;;;;;;;11.52;6.13;;;4.30;99.90;;;;;;5030188;28;20396;-57
2023/11/29 12:18:40;;;;;;;11.25;6.25;;;4.40;99.90;;;;;;5024608;28;20029;-56
2023/11/29 12:21:06;;;;;;;9.18;7.03;;;4.40;99.90;;;;;;5029073;28;20033;-55
2023/11/29 12:23:32;;;;;;;12.25;7.30;;;4.30;99.90;;;;;;5026467;28;20021;-55
2023/11/29 12:25:57;;;;;;;18.25;6.47;;;4.40;99.90;;;;;;5028381;28;20029;-54
2023/11/29 12:28:28;;;;;;;9.73;5.88;;;4.40;99.90;;;;;;5026474;28;20030;-54
2023/11/29 12:30:56;;;;;;;12.20;6.00;;;4.40;99.90;;;;;;5017005;28;20037;-55
2023/11/29 12:33:22;;;;;;;14.77;7.05;;;4.40;99.90;;;;;;5024890;28;20049;-57
2023/11/29 12:35:47;;;;;;;9.18;6.97;;;4.40;99.90;;;;;;5025429;28;20950;-54
2023/11/29 12:38:13;;;;;;;17.35;7.13;;;4.40;99.90;;;;;;5027471;28;20029;-54